createdAt,value
2019-04-22T00:00:06.630Z,62.84
2019-04-22T00:01:08.299Z,62.84
2019-04-22T00:02:09.551Z,63.04
2019-04-22T00:03:10.307Z,62.84
2019-04-22T00:04:10.839Z,62.74
2019-04-22T00:05:13.106Z,63.24
2019-04-22T00:06:26.814Z,63.24
2019-04-22T00:07:28.530Z,63.35
2019-04-22T00:08:31.274Z,63.45
2019-04-22T00:09:31.063Z,63.65
2019-04-22T00:10:33.166Z,63.48
2019-04-22T00:11:29.200Z,63.68
2019-04-22T00:12:34.539Z,64.20
2019-04-22T00:13:32.418Z,64.29
2019-04-22T00:14:26.780Z,64.20
2019-04-22T00:15:27.238Z,64.60
2019-04-22T00:16:34.320Z,64.53
2019-04-22T00:17:40.159Z,64.73
2019-04-22T00:18:50.532Z,64.94
2019-04-22T00:19:40.010Z,64.22
2019-04-22T00:20:30.469Z,64.43
2019-04-22T00:21:37.305Z,64.32
2019-04-22T00:22:33.342Z,64.84
2019-04-22T00:23:36.527Z,64.53
2019-04-22T00:24:32.107Z,64.43
2019-04-22T00:25:35.035Z,65.25
2019-04-22T00:26:40.366Z,65.34
2019-04-22T00:27:34.316Z,65.78
2019-04-22T00:28:32.362Z,65.78
2019-04-22T00:30:25.535Z,66.09
2019-04-22T00:31:26.833Z,66.19
2019-04-22T00:32:32.297Z,66.60
2019-04-22T00:34:29.883Z,66.16
2019-04-22T00:35:29.348Z,66.50
2019-04-22T00:36:28.599Z,66.50
2019-04-22T00:37:28.608Z,66.50
2019-04-22T00:39:44.788Z,66.50
2019-04-22T00:40:39.630Z,66.50
2019-04-22T00:41:43.944Z,66.39
2019-04-22T00:42:44.126Z,66.39
2019-04-22T00:43:42.185Z,66.39
2019-04-22T00:44:41.563Z,66.60
2019-04-22T00:45:49.187Z,66.39
2019-04-22T00:46:38.020Z,66.33
2019-04-22T00:47:37.935Z,66.53
2019-04-22T00:48:48.635Z,66.33
2019-04-22T00:51:44.752Z,67.55
2019-04-22T00:52:41.962Z,67.45
2019-04-22T00:53:39.170Z,67.45
2019-04-22T00:54:48.977Z,67.35
2019-04-22T00:55:43.036Z,67.04
2019-04-22T00:56:37.268Z,67.45
2019-04-22T00:57:42.119Z,67.55
2019-04-22T00:58:40.777Z,67.85
2019-04-22T00:59:40.307Z,68.06
2019-04-22T01:00:39.272Z,68.57
2019-04-22T01:01:37.208Z,68.37
2019-04-22T01:02:46.169Z,68.26
2019-04-22T01:03:46.243Z,68.47
2019-04-22T01:04:39.350Z,68.47
2019-04-22T01:05:43.744Z,68.37
2019-04-22T01:06:42.295Z,68.47
2019-04-22T01:07:35.803Z,67.96
2019-04-22T01:08:51.424Z,67.76
2019-04-22T01:09:36.552Z,68.40
2019-04-22T01:10:44.059Z,68.26
2019-04-22T01:11:37.546Z,68.60
2019-04-22T01:12:39.597Z,68.77
2019-04-22T01:13:39.361Z,68.67
2019-04-22T01:14:41.674Z,69.01
2019-04-22T01:15:40.163Z,69.52
2019-04-22T01:16:43.020Z,69.32
2019-04-22T01:17:43.064Z,70.23
2019-04-22T01:18:37.980Z,70.14
2019-04-22T01:19:49.595Z,70.64
2019-04-22T01:21:07.207Z,70.03
2019-04-22T01:21:42.116Z,70.54
2019-04-22T01:22:33.062Z,71.26
2019-04-22T01:23:34.612Z,71.05
2019-04-22T01:24:32.733Z,70.88
2019-04-22T01:25:32.416Z,72.31
2019-04-22T01:26:33.128Z,72.21
2019-04-22T01:27:30.897Z,72.72
2019-04-22T01:28:27.281Z,72.52
2019-04-22T01:29:28.030Z,72.41
2019-04-22T01:30:24.151Z,72.52
2019-04-22T01:31:19.603Z,73.27
2019-04-22T01:32:22.705Z,73.57
2019-04-22T01:33:25.159Z,73.06
2019-04-22T01:34:31.952Z,73.88
2019-04-22T01:35:31.032Z,74.18
2019-04-22T01:36:38.451Z,74.39
2019-04-22T01:38:38.998Z,74.59
2019-04-22T01:39:43.677Z,75.00
2019-04-22T01:40:49.527Z,75.21
2019-04-22T01:41:48.376Z,75.51
2019-04-22T01:42:39.709Z,76.84
2019-04-22T01:43:54.364Z,77.15
2019-04-22T01:44:40.576Z,77.15
2019-04-22T01:45:39.524Z,77.66
2019-04-22T01:46:44.782Z,77.97
2019-04-22T01:48:00.627Z,78.11
2019-04-22T01:48:39.383Z,78.82
2019-04-22T01:49:41.761Z,78.52
2019-04-22T01:50:36.856Z,78.31
2019-04-22T01:51:54.631Z,79.02
2019-04-22T01:52:38.011Z,78.72
2019-04-22T01:53:43.512Z,78.82
2019-04-22T01:54:41.842Z,79.02
2019-04-22T01:56:40.978Z,79.13
2019-04-22T01:57:37.686Z,79.23
2019-04-22T01:58:33.586Z,78.72
2019-04-22T01:59:31.766Z,80.05
2019-04-22T02:00:39.597Z,79.74
2019-04-22T02:01:46.482Z,79.74
2019-04-22T02:02:41.746Z,79.98
2019-04-22T02:03:43.079Z,79.78
2019-04-22T02:05:35.795Z,80.39
2019-04-22T02:06:43.616Z,80.29
2019-04-22T02:07:42.104Z,80.60
2019-04-22T02:08:44.904Z,80.90
2019-04-22T02:10:46.175Z,80.60
2019-04-22T02:11:51.709Z,80.60
2019-04-22T02:12:38.842Z,80.39
2019-04-22T02:13:43.098Z,80.60
2019-04-22T02:14:44.294Z,80.49
2019-04-22T02:15:43.751Z,80.80
2019-04-22T02:16:48.186Z,80.49
2019-04-22T02:20:40.182Z,80.19
2019-04-22T02:21:38.697Z,80.39
2019-04-22T02:23:04.216Z,80.94
2019-04-22T02:23:47.262Z,80.83
2019-04-22T02:25:44.299Z,80.63
2019-04-22T02:26:40.249Z,80.53
2019-04-22T02:27:48.123Z,80.63
2019-04-22T02:28:39.872Z,80.33
2019-04-22T02:29:43.515Z,80.33
2019-04-22T02:30:56.500Z,80.53
2019-04-22T02:31:44.477Z,80.02
2019-04-22T02:33:08.174Z,80.57
2019-04-22T02:34:50.354Z,81.08
2019-04-22T02:35:59.917Z,80.46
2019-04-22T02:37:35.925Z,81.29
2019-04-22T02:39:45.297Z,80.77
2019-04-22T02:40:57.789Z,81.08
2019-04-22T02:41:44.431Z,81.08
2019-04-22T02:42:45.830Z,80.98
2019-04-22T02:44:42.976Z,81.18
2019-04-22T02:45:52.561Z,81.73
2019-04-22T02:46:53.282Z,81.22
2019-04-22T02:47:45.451Z,80.81
2019-04-22T02:50:45.366Z,81.63
2019-04-22T02:51:52.317Z,81.01
2019-04-22T02:54:15.301Z,82.04
2019-04-22T02:54:52.606Z,82.14
2019-04-22T02:55:49.615Z,82.04
2019-04-22T02:56:36.008Z,81.94
2019-04-22T02:57:39.991Z,81.52
2019-04-22T02:58:56.558Z,81.01
2019-04-22T02:59:54.469Z,81.43
2019-04-22T03:00:46.679Z,81.52
2019-04-22T03:01:41.333Z,81.32
2019-04-22T03:02:50.560Z,81.12
2019-04-22T03:05:05.417Z,80.91
2019-04-22T03:06:42.145Z,80.64
2019-04-22T03:07:53.764Z,81.22
2019-04-22T03:08:45.642Z,81.36
2019-04-22T03:09:38.478Z,81.15
2019-04-22T03:11:52.986Z,81.26
2019-04-22T03:14:43.788Z,81.36
2019-04-22T03:15:56.871Z,81.09
2019-04-22T03:17:43.725Z,81.81
2019-04-22T03:18:55.002Z,81.50
2019-04-22T03:20:50.063Z,82.53
2019-04-22T03:23:11.489Z,82.26
2019-04-22T03:24:54.230Z,82.46
2019-04-22T03:27:40.108Z,82.56
2019-04-22T03:28:51.117Z,82.05
2019-04-22T03:30:11.298Z,82.15
2019-04-22T03:32:14.886Z,82.36
2019-04-22T03:34:09.725Z,82.77
2019-04-22T03:35:19.086Z,82.67
2019-04-22T03:35:55.609Z,82.56
2019-04-22T03:37:06.726Z,82.81
2019-04-22T03:39:04.448Z,83.22
2019-04-22T03:39:52.931Z,83.07
2019-04-22T03:40:46.953Z,82.56
2019-04-22T03:42:00.595Z,82.91
2019-04-22T03:43:42.179Z,83.01
2019-04-22T03:44:54.616Z,83.22
2019-04-22T03:45:39.722Z,83.12
2019-04-22T03:46:55.351Z,83.63
2019-04-22T03:48:01.530Z,83.32
2019-04-22T03:48:45.383Z,83.22
2019-04-22T03:53:05.664Z,83.53
2019-04-22T03:53:49.332Z,83.73
2019-04-22T03:54:54.157Z,83.42
2019-04-22T03:55:49.074Z,83.26
2019-04-22T03:57:19.389Z,83.46
2019-04-22T03:58:54.063Z,83.22
2019-04-22T04:00:03.358Z,83.46
2019-04-22T04:01:55.714Z,83.36
2019-04-22T04:03:50.692Z,83.26
2019-04-22T04:04:43.608Z,83.26
2019-04-22T04:08:38.815Z,82.64
2019-04-22T04:10:49.838Z,83.56
2019-04-22T04:12:47.146Z,82.95
2019-04-22T04:14:53.703Z,83.05
2019-04-22T04:15:38.499Z,82.95
2019-04-22T04:16:49.891Z,82.95
2019-04-22T04:18:57.855Z,83.26
2019-04-22T04:19:56.331Z,83.40
2019-04-22T04:20:47.192Z,83.29
2019-04-22T04:21:41.889Z,83.19
2019-04-22T04:23:05.531Z,83.26
2019-04-22T04:25:56.489Z,83.26
2019-04-22T04:30:46.574Z,83.56
2019-04-22T04:32:55.182Z,83.67
2019-04-22T04:35:07.794Z,83.77
2019-04-22T04:35:50.181Z,84.01
2019-04-22T04:37:52.487Z,84.12
2019-04-22T04:38:45.686Z,84.53
2019-04-22T04:40:40.812Z,84.49
2019-04-22T04:42:05.428Z,84.42
2019-04-22T04:45:48.768Z,84.63
2019-04-22T04:46:51.567Z,83.61
2019-04-22T04:47:49.255Z,83.81
2019-04-22T04:50:55.301Z,83.15
2019-04-22T04:53:08.402Z,84.63
2019-04-22T04:53:46.539Z,84.53
2019-04-22T04:54:48.253Z,84.12
2019-04-22T04:56:40.251Z,85.25
2019-04-22T04:57:57.298Z,85.04
2019-04-22T05:00:11.290Z,84.94
2019-04-22T05:01:44.576Z,84.84
2019-04-22T05:03:48.962Z,84.84
2019-04-22T05:04:59.452Z,84.59
2019-04-22T05:05:43.654Z,84.32
2019-04-22T05:06:51.795Z,84.53
2019-04-22T05:09:01.495Z,84.28
2019-04-22T05:09:36.005Z,85.04
2019-04-22T05:10:58.365Z,84.28
2019-04-22T05:11:54.418Z,84.90
2019-04-22T05:12:52.840Z,85.11
2019-04-22T05:13:50.095Z,84.90
2019-04-22T05:14:41.455Z,84.28
2019-04-22T05:15:56.888Z,84.49
2019-04-22T05:16:57.692Z,84.59
2019-04-22T05:17:52.798Z,84.28
2019-04-22T05:18:44.669Z,84.28
2019-04-22T05:19:56.862Z,84.45
2019-04-22T05:21:40.771Z,84.18
2019-04-22T05:22:39.773Z,84.69
2019-04-22T05:24:47.859Z,83.94
2019-04-22T05:25:31.654Z,83.83
2019-04-22T05:26:39.705Z,83.42
2019-04-22T05:27:47.321Z,83.63
2019-04-22T05:28:39.703Z,83.53
2019-04-22T05:29:46.461Z,83.83
2019-04-22T05:30:57.312Z,83.59
2019-04-22T05:31:52.377Z,83.18
2019-04-22T05:32:44.624Z,83.69
2019-04-22T05:33:34.947Z,83.49
2019-04-22T05:34:36.577Z,83.76
2019-04-22T05:35:44.384Z,83.34
2019-04-22T05:36:42.657Z,83.14
2019-04-22T05:37:41.591Z,82.83
2019-04-22T05:38:39.965Z,82.42
2019-04-22T05:39:35.952Z,83.04
2019-04-22T05:40:50.075Z,82.79
2019-04-22T05:41:39.800Z,82.28
2019-04-22T05:42:30.988Z,82.69
2019-04-22T05:43:38.664Z,82.59
2019-04-22T05:45:31.172Z,82.49
2019-04-22T05:46:34.760Z,82.08
2019-04-22T05:47:46.165Z,82.24
2019-04-22T05:48:41.021Z,81.32
2019-04-22T05:49:34.754Z,81.12
2019-04-22T05:50:37.313Z,81.94
2019-04-22T05:51:37.081Z,81.43
2019-04-22T05:52:31.680Z,81.12
2019-04-22T05:53:32.532Z,81.01
2019-04-22T05:54:55.228Z,80.57
2019-04-22T05:55:43.292Z,80.46
2019-04-22T05:57:48.543Z,79.82
2019-04-22T05:58:38.142Z,79.30
2019-04-22T05:59:44.351Z,78.86
2019-04-22T06:01:05.704Z,78.75
2019-04-22T06:01:43.174Z,78.45
2019-04-22T06:02:47.363Z,77.59
2019-04-22T06:03:39.424Z,77.22
2019-04-22T06:04:37.224Z,76.47
2019-04-22T06:05:35.936Z,76.43
2019-04-22T06:06:36.209Z,75.92
2019-04-22T06:07:31.325Z,75.82
2019-04-22T06:08:44.377Z,75.21
2019-04-22T06:09:32.635Z,74.97
2019-04-22T06:10:41.825Z,74.90
2019-04-22T06:11:46.462Z,74.56
2019-04-22T06:12:32.788Z,73.84
2019-04-22T06:13:36.948Z,74.15
2019-04-22T06:14:31.421Z,73.60
2019-04-22T06:15:36.350Z,73.19
2019-04-22T06:16:43.126Z,72.48
2019-04-22T06:17:38.003Z,72.45
2019-04-22T06:18:33.476Z,72.45
2019-04-22T06:19:38.287Z,70.92
2019-04-22T06:20:38.394Z,71.12
2019-04-22T06:21:38.616Z,70.98
2019-04-22T06:22:44.280Z,71.19
2019-04-22T06:23:42.653Z,70.57
2019-04-22T06:24:39.228Z,70.65
2019-04-22T06:25:53.450Z,69.73
2019-04-22T06:26:46.511Z,70.24
2019-04-22T06:28:43.150Z,68.88
2019-04-22T06:29:32.093Z,68.88
2019-04-22T06:30:35.695Z,68.95
2019-04-22T06:31:43.281Z,68.54
2019-04-22T06:32:34.558Z,67.63
2019-04-22T06:33:34.889Z,67.52
2019-04-22T06:34:38.549Z,67.63
2019-04-22T06:35:45.766Z,67.69
2019-04-22T06:36:37.761Z,67.08
2019-04-22T06:37:43.277Z,67.19
2019-04-22T06:38:55.307Z,66.99
2019-04-22T06:39:38.249Z,66.55
2019-04-22T06:40:40.335Z,66.35
2019-04-22T06:41:38.067Z,66.35
2019-04-22T06:42:36.240Z,65.83
2019-04-22T06:43:35.023Z,65.50
2019-04-22T06:44:36.511Z,65.91
2019-04-22T06:45:35.052Z,65.80
2019-04-22T06:48:37.993Z,64.96
2019-04-22T06:49:35.598Z,65.16
2019-04-22T06:50:44.837Z,64.25
2019-04-22T06:51:37.737Z,64.25
2019-04-22T06:52:39.286Z,64.52
2019-04-22T06:53:34.410Z,63.10
2019-04-22T06:56:35.069Z,62.87
2019-04-22T06:57:36.340Z,62.87
2019-04-22T06:58:36.822Z,62.36
2019-04-22T06:59:37.777Z,61.85
2019-04-22T07:00:36.730Z,61.52
2019-04-22T07:01:35.701Z,61.21
2019-04-22T07:02:45.238Z,61.32
2019-04-22T07:03:44.165Z,60.71
2019-04-22T07:04:33.637Z,60.47
2019-04-22T07:05:27.582Z,59.46
2019-04-22T07:06:44.779Z,59.56
2019-04-22T07:07:31.478Z,59.16
2019-04-22T07:11:33.356Z,58.01
2019-04-22T07:12:34.792Z,57.40
2019-04-22T07:13:34.391Z,57.28
2019-04-22T07:14:35.615Z,56.57
2019-04-22T07:15:46.541Z,56.67
2019-04-22T07:16:38.081Z,56.77
2019-04-22T07:18:00.991Z,56.74
2019-04-22T07:18:36.081Z,56.84
2019-04-22T07:20:36.446Z,57.35
2019-04-22T07:21:37.319Z,56.74
2019-04-22T07:22:37.973Z,56.10
2019-04-22T07:25:34.919Z,55.19
2019-04-22T07:26:54.360Z,55.30
2019-04-22T07:27:34.471Z,55.60
2019-04-22T07:28:29.136Z,54.66
2019-04-22T07:29:32.610Z,53.96
2019-04-22T07:30:31.339Z,53.32
2019-04-22T07:31:37.290Z,53.83
2019-04-22T07:33:01.072Z,53.22
2019-04-22T07:35:45.954Z,54.61
2019-04-22T07:37:36.817Z,54.00
2019-04-22T07:38:29.857Z,53.88
2019-04-22T07:39:35.210Z,54.18
2019-04-22T07:40:38.917Z,54.28
2019-04-22T07:41:38.410Z,54.49
2019-04-22T07:42:36.882Z,54.28
2019-04-22T07:43:51.701Z,52.87
2019-04-22T07:44:48.480Z,52.87
2019-04-22T07:45:38.806Z,52.94
2019-04-22T07:47:53.829Z,52.44
2019-04-22T07:48:43.406Z,53.12
2019-04-22T07:49:41.180Z,52.92
2019-04-22T07:50:50.671Z,52.11
2019-04-22T07:52:33.424Z,51.81
2019-04-22T07:53:33.492Z,51.50
2019-04-22T07:54:31.639Z,51.07
2019-04-22T07:55:32.700Z,50.98
2019-04-22T07:56:37.911Z,51.07
2019-04-22T07:57:33.479Z,50.57
2019-04-22T07:58:35.538Z,49.16
2019-04-22T07:59:35.276Z,49.13
2019-04-22T08:00:34.306Z,49.13
2019-04-22T08:01:30.497Z,50.65
2019-04-22T08:02:37.684Z,49.64
2019-04-22T08:03:47.852Z,49.92
2019-04-22T08:04:55.775Z,50.22
2019-04-22T08:05:49.423Z,49.41
2019-04-22T08:06:43.794Z,49.21
2019-04-22T08:07:35.986Z,49.41
2019-04-22T08:10:49.615Z,48.41
2019-04-22T08:12:38.890Z,47.58
2019-04-22T08:13:38.839Z,48.69
2019-04-22T08:14:36.224Z,48.69
2019-04-22T08:15:43.213Z,48.08
2019-04-22T08:16:40.291Z,48.79
2019-04-22T08:18:34.096Z,48.79
2019-04-22T08:19:38.254Z,49.07
2019-04-22T08:20:39.188Z,48.16
2019-04-22T08:21:44.326Z,48.46
2019-04-22T08:22:40.185Z,48.26
2019-04-22T08:23:36.755Z,47.45
2019-04-22T08:24:42.254Z,48.84
2019-04-22T08:25:34.326Z,47.86
2019-04-22T08:26:32.015Z,47.63
2019-04-22T08:27:39.555Z,47.63
2019-04-22T08:28:41.306Z,47.63
2019-04-22T08:31:38.570Z,47.71
2019-04-22T08:32:34.582Z,48.52
2019-04-22T08:33:35.032Z,47.71
2019-04-22T08:34:47.466Z,47.41
2019-04-22T08:36:50.770Z,45.37
2019-04-22T08:37:47.569Z,45.87
2019-04-22T08:38:39.624Z,46.36
2019-04-22T08:39:33.347Z,45.95
2019-04-22T08:40:40.464Z,46.36
2019-04-22T08:41:37.574Z,46.36
2019-04-22T08:42:43.596Z,46.06
2019-04-22T08:44:52.107Z,45.05
2019-04-22T08:45:43.039Z,45.15
2019-04-22T08:46:48.959Z,43.72
2019-04-22T08:47:36.126Z,43.62
2019-04-22T08:48:41.388Z,43.02
2019-04-22T08:49:44.381Z,43.50
2019-04-22T08:50:33.926Z,43.20
2019-04-22T08:51:30.877Z,43.30
2019-04-22T08:52:33.809Z,42.69
2019-04-22T08:53:41.524Z,42.47
2019-04-22T08:54:37.657Z,41.67
2019-04-22T08:55:40.153Z,41.27
2019-04-22T08:56:45.609Z,41.65
2019-04-22T08:57:58.510Z,40.75
2019-04-22T08:58:35.877Z,40.65
2019-04-22T08:59:28.352Z,40.85
2019-04-22T09:00:42.093Z,40.95
2019-04-22T09:01:35.971Z,41.43
2019-04-22T09:02:45.508Z,41.74
2019-04-22T09:03:31.823Z,41.74
2019-04-22T09:04:30.927Z,41.82
2019-04-22T09:05:51.800Z,41.21
2019-04-22T09:06:49.686Z,40.71
2019-04-22T09:07:52.724Z,39.81
2019-04-22T09:08:38.627Z,40.01
2019-04-22T09:09:37.873Z,38.70
2019-04-22T09:10:37.766Z,37.60
2019-04-22T09:12:49.969Z,38.39
2019-04-22T09:13:35.522Z,38.49
2019-04-22T09:14:37.936Z,37.87
2019-04-22T09:15:34.280Z,36.57
2019-04-22T09:16:39.404Z,36.16
2019-04-22T09:17:34.382Z,33.74
2019-04-22T09:18:34.819Z,35.44
2019-04-22T09:19:47.794Z,34.03
2019-04-22T09:20:32.662Z,35.05
2019-04-22T09:22:36.526Z,33.03
2019-04-22T09:23:40.376Z,32.62
2019-04-22T09:24:35.771Z,33.03
2019-04-22T09:25:34.283Z,32.61
2019-04-22T09:26:35.990Z,33.21
2019-04-22T09:27:41.251Z,32.81
2019-04-22T09:28:38.053Z,31.71
2019-04-22T09:31:35.967Z,31.29
2019-04-22T09:32:39.999Z,31.40
2019-04-22T09:33:34.931Z,31.59
2019-04-22T09:34:38.275Z,31.78
2019-04-22T09:35:37.476Z,31.28
2019-04-22T09:36:33.708Z,31.58
2019-04-22T09:37:39.244Z,30.98
2019-04-22T09:38:39.560Z,31.38
2019-04-22T09:39:37.521Z,31.78
2019-04-22T09:40:34.525Z,30.38
2019-04-22T09:42:38.881Z,30.87
2019-04-22T09:43:42.795Z,30.46
2019-04-22T09:44:36.255Z,30.36
2019-04-22T09:45:36.924Z,29.57
2019-04-22T09:46:39.271Z,29.55
2019-04-22T09:47:38.498Z,29.65
2019-04-22T09:48:37.578Z,31.15
2019-04-22T09:49:37.073Z,29.46
2019-04-22T09:50:40.444Z,28.75
2019-04-22T09:51:30.833Z,27.06
2019-04-22T09:52:37.593Z,28.55
2019-04-22T09:53:37.596Z,29.65
2019-04-22T09:54:43.737Z,30.04
2019-04-22T09:55:31.231Z,28.85
2019-04-22T09:56:42.147Z,28.94
2019-04-22T09:57:35.347Z,28.94
2019-04-22T09:58:40.349Z,28.84
2019-04-22T09:59:36.734Z,28.94
2019-04-22T10:00:37.470Z,29.04
2019-04-22T10:02:02.344Z,28.74
2019-04-22T10:03:36.787Z,28.94
2019-04-22T10:04:34.666Z,28.84
2019-04-22T10:05:32.721Z,28.74
2019-04-22T10:06:40.599Z,28.94
2019-04-22T10:07:39.428Z,28.53
2019-04-22T10:08:40.687Z,28.53
2019-04-22T10:10:34.835Z,28.03
2019-04-22T10:12:36.716Z,27.63
2019-04-22T10:13:34.705Z,27.63
2019-04-22T10:14:32.090Z,27.53
2019-04-22T10:15:37.563Z,28.03
2019-04-22T10:16:40.293Z,27.63
2019-04-22T10:17:32.258Z,27.13
2019-04-22T10:18:32.457Z,27.51
2019-04-22T10:19:35.835Z,27.02
2019-04-22T10:20:31.067Z,27.32
2019-04-22T10:21:40.576Z,27.22
2019-04-22T10:22:44.009Z,27.51
2019-04-22T10:23:31.509Z,28.02
2019-04-22T10:24:31.983Z,28.02
2019-04-22T10:25:41.967Z,27.22
2019-04-22T10:26:33.373Z,27.62
2019-04-22T10:27:32.426Z,28.71
2019-04-22T10:28:38.521Z,28.22
2019-04-22T10:29:35.146Z,28.52
2019-04-22T10:30:44.446Z,27.12
2019-04-22T10:31:37.003Z,27.20
2019-04-22T10:32:33.427Z,27.50
2019-04-22T10:33:25.772Z,27.70
2019-04-22T10:34:17.872Z,27.50
2019-04-22T10:35:12.947Z,28.10
2019-04-22T10:36:08.013Z,28.20
2019-04-22T10:37:11.840Z,28.20
2019-04-22T10:38:08.301Z,26.31
2019-04-22T10:39:08.442Z,27.30
2019-04-22T10:40:09.870Z,28.20
2019-04-22T10:41:08.271Z,27.20
2019-04-22T10:42:07.185Z,27.70
2019-04-22T10:43:07.284Z,26.61
2019-04-22T10:44:06.893Z,26.90
2019-04-22T10:45:08.189Z,27.30
2019-04-22T10:46:08.217Z,27.50
2019-04-22T10:47:06.855Z,27.50
2019-04-22T10:48:08.202Z,27.09
2019-04-22T10:49:08.278Z,28.58
2019-04-22T10:50:07.011Z,27.19
2019-04-22T10:51:06.823Z,27.19
2019-04-22T10:52:06.823Z,27.09
2019-04-22T10:53:07.737Z,27.29
2019-04-22T10:54:07.374Z,27.78
2019-04-22T10:55:07.537Z,27.29
2019-04-22T10:56:07.236Z,27.08
2019-04-22T10:57:06.798Z,26.88
2019-04-22T10:58:06.799Z,26.78
2019-04-22T10:59:06.905Z,26.78
2019-04-22T11:00:06.726Z,27.08
2019-04-22T11:01:07.417Z,26.48
2019-04-22T11:02:07.522Z,26.78
2019-04-22T11:03:06.677Z,26.68
2019-04-22T11:04:07.023Z,26.78
2019-04-22T11:05:08.122Z,26.78
2019-04-22T11:06:07.494Z,26.58
2019-04-22T11:07:10.147Z,26.78
2019-04-22T11:08:08.184Z,27.28
2019-04-22T11:09:08.525Z,28.16
2019-04-22T11:10:21.760Z,26.76
2019-04-22T11:11:21.355Z,27.36
2019-04-22T11:12:13.887Z,26.27
2019-04-22T11:13:07.584Z,26.97
2019-04-22T11:14:07.460Z,27.47
2019-04-22T11:15:07.698Z,27.47
2019-04-22T11:16:07.628Z,26.97
2019-04-22T11:17:07.406Z,26.87
2019-04-22T11:18:07.418Z,27.47
2019-04-22T11:19:07.729Z,27.96
2019-04-22T11:20:07.820Z,27.96
2019-04-22T11:21:07.520Z,28.06
2019-04-22T11:22:16.218Z,27.76
2019-04-22T11:23:08.748Z,28.46
2019-04-22T11:24:06.461Z,27.26
2019-04-22T11:25:07.558Z,27.17
2019-04-22T11:26:07.960Z,26.97
2019-04-22T11:27:07.032Z,27.26
2019-04-22T11:28:07.556Z,28.15
2019-04-22T11:29:07.680Z,27.95
2019-04-22T11:30:07.836Z,27.95
2019-04-22T11:31:06.428Z,28.64
2019-04-22T11:32:06.384Z,27.75
2019-04-22T11:33:06.845Z,27.45
2019-04-22T11:34:06.400Z,27.05
2019-04-22T11:35:07.743Z,27.05
2019-04-22T11:36:06.339Z,27.45
2019-04-22T11:37:06.315Z,27.15
2019-04-22T11:38:06.618Z,28.64
2019-04-22T11:39:09.721Z,26.95
2019-04-22T11:40:18.969Z,27.95
2019-04-22T11:41:07.401Z,28.44
2019-04-22T11:42:06.267Z,27.25
2019-04-22T11:43:06.288Z,28.15
2019-04-22T11:44:07.583Z,27.54
2019-04-22T11:45:06.241Z,28.25
2019-04-22T11:46:07.306Z,28.13
2019-04-22T11:47:07.480Z,28.23
2019-04-22T11:48:06.188Z,27.14
2019-04-22T11:49:06.174Z,28.13
2019-04-22T11:50:06.195Z,28.13
2019-04-22T11:51:06.280Z,26.94
2019-04-22T11:52:08.694Z,27.34
2019-04-22T11:53:07.056Z,27.14
2019-04-22T11:54:07.189Z,27.04
2019-04-22T11:55:06.668Z,27.44
2019-04-22T11:56:06.885Z,27.64
2019-04-22T11:57:07.327Z,27.73
2019-04-22T11:58:06.740Z,27.64
2019-04-22T11:59:06.748Z,27.14
2019-04-22T12:00:07.141Z,27.14
2019-04-22T12:01:06.612Z,27.44
2019-04-22T12:02:06.730Z,27.44
2019-04-22T12:03:07.312Z,26.84
2019-04-22T12:04:07.450Z,27.54
2019-04-22T12:05:07.961Z,27.12
2019-04-22T12:06:06.081Z,27.14
2019-04-22T12:07:05.997Z,27.33
2019-04-22T12:08:07.077Z,27.12
2019-04-22T12:09:05.999Z,27.03
2019-04-22T12:10:22.377Z,27.33
2019-04-22T12:11:08.000Z,26.33
2019-04-22T12:12:05.930Z,26.81
2019-04-22T12:13:06.373Z,26.82
2019-04-22T12:14:06.274Z,26.82
2019-04-22T12:15:06.397Z,26.63
2019-04-22T12:16:07.360Z,26.63
2019-04-22T12:17:05.875Z,26.93
2019-04-22T12:18:07.067Z,27.41
2019-04-22T12:19:07.049Z,27.31
2019-04-22T12:20:08.785Z,26.92
2019-04-22T12:21:05.850Z,27.11
2019-04-22T12:22:07.138Z,26.42
2019-04-22T12:23:07.320Z,25.52
2019-04-22T12:24:05.826Z,25.91
2019-04-22T12:25:06.374Z,26.01
2019-04-22T12:26:11.678Z,26.40
2019-04-22T12:27:06.776Z,26.50
2019-04-22T12:28:05.753Z,26.29
2019-04-22T12:29:06.983Z,24.99
2019-04-22T12:30:06.898Z,24.58
2019-04-22T12:31:05.810Z,24.07
2019-04-22T12:32:07.399Z,23.36
2019-04-22T12:33:09.284Z,21.85
2019-04-22T12:34:07.905Z,22.13
2019-04-22T12:35:07.193Z,22.20
2019-04-22T12:36:06.478Z,21.70
2019-04-22T12:37:06.729Z,20.99
2019-04-22T12:38:08.614Z,21.57
2019-04-22T12:39:13.778Z,20.87
2019-04-22T12:40:06.508Z,20.27
2019-04-22T12:41:09.575Z,20.17
2019-04-22T12:42:06.634Z,20.06
2019-04-22T12:43:06.668Z,19.16
2019-04-22T12:44:05.638Z,18.76
2019-04-22T12:45:06.435Z,19.64
2019-04-22T12:46:07.870Z,19.72
2019-04-22T12:47:07.430Z,19.04
2019-04-22T12:48:06.373Z,18.44
2019-04-22T12:49:05.533Z,18.92
2019-04-22T12:50:12.307Z,18.72
2019-04-22T12:51:07.039Z,17.94
2019-04-22T12:52:05.500Z,18.81
2019-04-22T12:53:10.910Z,18.62
2019-04-22T12:54:06.845Z,19.10
2019-04-22T12:55:05.993Z,18.99
2019-04-22T12:56:06.919Z,18.50
2019-04-22T12:57:05.963Z,18.10
2019-04-22T12:58:05.570Z,17.80
2019-04-22T12:59:05.757Z,17.12
2019-04-22T13:00:05.840Z,17.22
2019-04-22T13:01:06.633Z,16.73
2019-04-22T13:02:06.890Z,16.73
2019-04-22T13:03:05.465Z,16.34
2019-04-22T13:04:09.119Z,17.70
2019-04-22T13:05:05.961Z,17.02
2019-04-22T13:06:05.889Z,16.33
2019-04-22T13:07:06.104Z,16.52
2019-04-22T13:08:05.684Z,16.33
2019-04-22T13:09:06.246Z,15.94
2019-04-22T13:10:06.048Z,16.33
2019-04-22T13:11:11.781Z,16.33
2019-04-22T13:12:06.926Z,17.41
2019-04-22T13:13:06.803Z,17.02
2019-04-22T13:14:05.357Z,16.42
2019-04-22T13:15:06.511Z,16.72
2019-04-22T13:16:06.882Z,17.41
2019-04-22T13:17:06.210Z,16.44
2019-04-22T13:18:13.754Z,16.53
2019-04-22T13:19:11.246Z,17.71
2019-04-22T13:20:06.237Z,17.80
2019-04-22T13:21:06.570Z,17.82
2019-04-22T13:22:05.220Z,17.32
2019-04-22T13:23:05.218Z,17.52
2019-04-22T13:24:05.178Z,17.62
2019-04-22T13:25:06.048Z,18.50
2019-04-22T13:26:05.239Z,18.21
2019-04-22T13:27:06.571Z,18.32
2019-04-22T13:28:05.235Z,17.93
2019-04-22T13:29:05.324Z,18.82
2019-04-22T13:30:06.245Z,19.62
2019-04-22T13:31:05.768Z,19.82
2019-04-22T13:32:05.116Z,20.41
2019-04-22T13:33:05.222Z,20.12
2019-04-22T13:34:09.577Z,20.12
2019-04-22T13:35:07.105Z,21.12
2019-04-22T13:36:05.979Z,20.83
2019-04-22T13:37:07.390Z,21.83
2019-04-22T13:38:05.043Z,22.02
2019-04-22T13:39:05.060Z,21.84
2019-04-22T13:40:05.392Z,21.75
2019-04-22T13:41:16.410Z,22.25
2019-04-22T13:42:11.410Z,22.45
2019-04-22T13:43:07.097Z,22.25
2019-04-22T13:44:05.051Z,22.46
2019-04-22T13:45:04.961Z,22.46
2019-04-22T13:46:06.031Z,22.08
2019-04-22T13:47:19.751Z,23.06
2019-04-22T13:48:27.609Z,22.47
2019-04-22T13:49:51.546Z,22.88
2019-04-22T13:50:47.660Z,22.88
2019-04-22T13:51:36.395Z,22.30
2019-04-22T13:55:35.707Z,23.08
2019-04-22T13:56:25.311Z,22.89
2019-04-22T13:57:28.054Z,22.70
2019-04-22T13:58:18.441Z,22.70
2019-04-22T13:59:16.735Z,22.91
2019-04-22T14:00:07.663Z,23.21
2019-04-22T14:01:04.973Z,22.91
2019-04-22T14:02:06.332Z,22.61
2019-04-22T14:03:04.766Z,22.31
2019-04-22T14:04:04.933Z,23.60
2019-04-22T14:05:04.774Z,23.90
2019-04-22T14:06:04.940Z,23.41
2019-04-22T14:07:05.143Z,24.50
2019-04-22T14:08:06.310Z,24.01
2019-04-22T14:09:05.274Z,23.22
2019-04-22T14:10:04.698Z,24.11
2019-04-22T14:11:16.993Z,24.61
2019-04-22T14:12:07.732Z,24.61
2019-04-22T14:13:05.717Z,24.72
2019-04-22T14:14:05.097Z,24.82
2019-04-22T14:15:06.191Z,24.63
2019-04-22T14:16:04.834Z,24.73
2019-04-22T14:17:04.962Z,25.52
2019-04-22T14:18:05.181Z,25.13
2019-04-22T14:19:05.682Z,26.12
2019-04-22T14:20:04.810Z,25.52
2019-04-22T14:21:05.081Z,25.62
2019-04-22T14:22:04.566Z,26.03
2019-04-22T14:23:06.084Z,26.43
2019-04-22T14:24:04.929Z,26.43
2019-04-22T14:25:05.043Z,26.92
2019-04-22T14:26:05.222Z,25.93
2019-04-22T14:27:19.542Z,26.54
2019-04-22T14:28:10.228Z,26.25
2019-04-22T14:29:06.049Z,26.14
2019-04-22T14:30:04.479Z,25.74
2019-04-22T14:31:04.516Z,26.04
2019-04-22T14:33:06.795Z,25.95
2019-04-22T14:34:07.332Z,26.45
2019-04-22T14:35:05.005Z,26.85
2019-04-22T14:36:04.962Z,26.65
2019-04-22T14:37:05.720Z,27.44
2019-04-22T14:38:06.294Z,26.75
2019-04-22T14:39:05.902Z,27.04
2019-04-22T14:40:08.770Z,26.75
2019-04-22T14:41:05.759Z,26.85